Time;durP1;ratioP1;P1;durP2;ratioP2;P2;SDS_P1;SDS_P2;PMS_P1;PMS_P2;Temp;Humidity;BMP_temperature;BMP_pressure;BME280_temperature;BME280_humidity;BME280_pressure;Samples;Min_cycle;Max_cycle;Signal;HPM_P1;HPM_P2
2022/04/29 00:00:34;;;;;;;5.03;2.75;;;14.00;77.60;;;;;;4920877;29;20466;-80
2022/04/29 00:03:09;;;;;;;3.20;2.90;;;13.90;77.70;;;;;;4924115;29;20028;-80
2022/04/29 00:05:55;;;;;;;4.53;3.45;;;13.90;78.20;;;;;;4921894;28;20067;-80
2022/04/29 00:08:21;;;;;;;8.32;3.10;;;13.90;78.50;;;;;;4925616;29;20093;-79
2022/04/29 00:10:49;;;;;;;3.30;3.00;;;13.80;79.00;;;;;;4910659;29;20483;-80
2022/04/29 00:13:27;;;;;;;5.38;3.28;;;13.70;78.70;;;;;;4921912;29;20055;-80
2022/04/29 00:16:10;;;;;;;3.70;3.00;;;13.70;78.50;;;;;;4918940;29;20027;-80
2022/04/29 00:18:48;;;;;;;6.18;3.42;;;13.70;78.80;;;;;;4927280;29;20038;-80
2022/04/29 00:21:32;;;;;;;3.58;3.08;;;13.70;79.20;;;;;;4905759;29;20048;-79
2022/04/29 00:24:00;;;;;;;7.05;3.65;;;13.70;79.40;;;;;;4928353;29;20115;-79
2022/04/29 00:26:49;;;;;;;3.05;2.83;;;13.60;79.30;;;;;;4922688;29;20071;-79
2022/04/29 00:29:15;;;;;;;4.72;3.40;;;13.50;79.60;;;;;;4914795;29;20054;-79
2022/04/29 00:31:44;;;;;;;4.93;3.50;;;13.50;80.10;;;;;;4926452;29;20051;-79
2022/04/29 00:34:11;;;;;;;4.95;3.47;;;13.50;80.20;;;;;;4923278;29;20037;-80
2022/04/29 00:36:37;;;;;;;4.10;3.00;;;13.40;80.10;;;;;;4922542;29;20064;-79
2022/04/29 00:39:03;;;;;;;7.05;3.65;;;13.40;80.60;;;;;;4919452;29;20036;-81
2022/04/29 00:41:29;;;;;;;6.10;3.42;;;13.30;80.80;;;;;;4924981;29;20452;-81
2022/04/29 00:44:09;;;;;;;5.40;3.20;;;13.30;81.10;;;;;;4904270;29;20075;-81
2022/04/29 00:46:42;;;;;;;5.40;3.58;;;13.20;81.30;;;;;;4920155;29;20040;-80
2022/04/29 00:49:11;;;;;;;4.45;3.10;;;13.20;81.60;;;;;;4921155;29;20078;-81
2022/04/29 00:51:38;;;;;;;5.25;3.67;;;13.20;81.00;;;;;;4924716;29;20027;-80
2022/04/29 00:54:07;;;;;;;3.70;3.03;;;13.20;80.90;;;;;;4929473;29;20407;-81
2022/04/29 00:56:37;;;;;;;5.18;3.40;;;13.30;80.30;;;;;;4924151;29;20028;-81
2022/04/29 01:00:01;;;;;;;4.88;3.50;;;13.30;80.10;;;;;;4909413;29;20087;-80
2022/04/29 01:02:28;;;;;;;6.07;3.78;;;13.30;80.90;;;;;;4873989;29;20037;-80
2022/04/29 01:05:00;;;;;;;6.85;3.30;;;13.30;81.30;;;;;;4874553;29;20630;-80
2022/04/29 01:07:31;;;;;;;4.75;3.20;;;13.20;80.40;;;;;;4901634;29;20055;-80
2022/04/29 01:09:57;;;;;;;5.85;3.00;;;13.20;80.70;;;;;;4930629;29;20107;-80
2022/04/29 01:12:25;;;;;;;4.03;3.50;;;13.20;80.80;;;;;;4927611;29;20131;-80
2022/04/29 01:15:03;;;;;;;4.03;3.15;;;13.20;81.30;;;;;;4923182;29;20027;-80
2022/04/29 01:17:44;;;;;;;3.92;3.00;;;13.20;80.40;;;;;;4926171;29;20028;-80
2022/04/29 01:20:26;;;;;;;4.93;3.50;;;13.20;80.50;;;;;;4930340;29;20032;-79
2022/04/29 01:22:56;;;;;;;3.90;3.13;;;13.20;80.50;;;;;;4926000;29;20071;-80
2022/04/29 01:25:54;;;;;;;4.10;3.33;;;13.30;80.90;;;;;;4929633;29;20039;-80
2022/04/29 01:28:21;;;;;;;4.88;3.20;;;13.30;80.50;;;;;;4929257;29;20095;-80
2022/04/29 01:31:15;;;;;;;5.50;3.40;;;13.30;80.30;;;;;;4926823;29;20236;-79
2022/04/29 01:33:42;;;;;;;4.75;3.10;;;13.30;80.30;;;;;;4930670;29;20039;-79
2022/04/29 01:36:09;;;;;;;7.25;3.30;;;13.30;80.60;;;;;;4924552;29;20075;-81
2022/04/29 01:38:38;;;;;;;4.32;3.45;;;13.30;79.90;;;;;;4923003;29;20051;-80
2022/04/29 01:41:07;;;;;;;5.55;3.08;;;13.30;80.20;;;;;;4907525;29;20040;-81
2022/04/29 01:43:34;;;;;;;3.83;2.80;;;13.20;80.60;;;;;;4925575;29;20040;-81
2022/04/29 01:46:00;;;;;;;4.95;3.20;;;13.30;80.40;;;;;;4925018;29;20024;-82
2022/04/29 01:48:38;;;;;;;5.18;2.92;;;13.20;80.20;;;;;;4922064;29;20027;-80
2022/04/29 01:51:06;;;;;;;3.88;3.30;;;13.30;80.10;;;;;;4925598;29;20454;-81
2022/04/29 01:53:41;;;;;;;5.03;2.95;;;13.30;80.00;;;;;;4907264;29;20035;-80
2022/04/29 01:56:10;;;;;;;5.78;3.17;;;13.30;80.30;;;;;;4928229;29;20036;-80
2022/04/29 01:58:35;;;;;;;3.22;2.95;;;13.30;80.20;;;;;;4922872;29;20403;-82
2022/04/29 02:01:02;;;;;;;7.45;3.42;;;13.30;79.70;;;;;;4925112;29;20114;-79
2022/04/29 02:03:27;;;;;;;4.93;3.40;;;13.30;80.00;;;;;;4929934;29;20119;-82
2022/04/29 02:05:53;;;;;;;5.28;3.38;;;13.30;80.50;;;;;;4927302;29;20112;-82
2022/04/29 02:08:19;;;;;;;8.35;3.65;;;13.30;80.10;;;;;;4924112;29;20044;-82
2022/04/29 02:10:44;;;;;;;3.95;3.38;;;13.40;80.10;;;;;;4925250;29;20495;-82
2022/04/29 02:13:10;;;;;;;3.90;3.10;;;13.30;80.20;;;;;;4924510;29;20142;-82
2022/04/29 02:15:36;;;;;;;4.60;3.28;;;13.40;80.50;;;;;;4922789;29;20507;-82
2022/04/29 02:18:02;;;;;;;5.07;3.45;;;13.30;80.20;;;;;;4926973;29;20502;-80
2022/04/29 02:20:27;;;;;;;5.43;3.50;;;13.30;80.40;;;;;;4927427;29;20036;-81
2022/04/29 02:22:53;;;;;;;3.72;3.33;;;13.30;80.80;;;;;;4925869;29;20032;-81
2022/04/29 02:25:20;;;;;;;4.93;3.28;;;13.30;80.50;;;;;;4901624;29;20035;-81
2022/04/29 02:27:46;;;;;;;3.70;3.40;;;13.20;81.00;;;;;;4924055;29;20035;-81
2022/04/29 02:30:13;;;;;;;4.57;3.47;;;13.20;80.90;;;;;;4889580;29;20385;-81
2022/04/29 02:32:39;;;;;;;6.97;3.20;;;13.30;80.40;;;;;;4909330;29;20566;-81
2022/04/29 02:35:05;;;;;;;4.68;3.50;;;13.40;79.90;;;;;;4930468;29;20067;-81
2022/04/29 02:37:31;;;;;;;4.40;3.10;;;13.50;79.60;;;;;;4908788;29;20032;-81
2022/04/29 02:39:57;;;;;;;5.25;3.40;;;13.40;79.30;;;;;;4924290;29;20133;-81
2022/04/29 02:42:23;;;;;;;6.28;3.28;;;13.50;78.80;;;;;;4924022;29;20511;-81
2022/04/29 02:44:49;;;;;;;6.78;3.13;;;13.50;78.60;;;;;;4921350;29;20027;-81
2022/04/29 02:47:14;;;;;;;4.93;2.92;;;13.50;78.30;;;;;;4927098;29;20079;-81
2022/04/29 02:49:42;;;;;;;4.82;3.03;;;13.50;78.10;;;;;;4904004;29;20379;-81
2022/04/29 02:52:10;;;;;;;3.40;2.78;;;13.60;78.10;;;;;;4923712;29;20121;-81
2022/04/29 02:54:36;;;;;;;3.72;2.95;;;13.50;77.80;;;;;;4922633;29;20566;-81
2022/04/29 02:57:03;;;;;;;4.07;3.20;;;13.60;77.30;;;;;;4924920;29;20036;-81
2022/04/29 02:59:29;;;;;;;4.15;3.13;;;13.60;77.60;;;;;;4905192;29;20032;-81
2022/04/29 03:01:55;;;;;;;5.95;3.20;;;13.50;77.60;;;;;;4926028;29;20087;-81
2022/04/29 03:04:21;;;;;;;3.17;2.88;;;13.50;78.00;;;;;;4928082;29;20024;-81
2022/04/29 03:06:46;;;;;;;4.45;2.92;;;13.40;78.50;;;;;;4926237;29;20028;-81
2022/04/29 03:09:13;;;;;;;3.75;3.15;;;13.30;78.90;;;;;;4922073;29;20054;-81
2022/04/29 03:11:39;;;;;;;3.20;2.90;;;13.20;79.30;;;;;;4907162;29;20112;-81
2022/04/29 03:14:05;;;;;;;4.68;3.10;;;13.10;79.20;;;;;;4920030;29;20036;-81
2022/04/29 03:16:31;;;;;;;3.35;3.00;;;13.10;79.60;;;;;;4923732;29;20028;-81
2022/04/29 03:18:57;;;;;;;4.70;3.15;;;13.00;78.80;;;;;;4920492;29;20087;-81
2022/04/29 03:21:27;;;;;;;4.80;2.90;;;13.00;78.70;;;;;;4922680;29;20506;-81
2022/04/29 03:24:11;;;;;;;3.88;2.85;;;13.10;78.10;;;;;;4928580;29;20054;-79
2022/04/29 03:30:08;;;;;;;4.43;3.10;;;13.20;78.40;;;;;;4902471;29;20032;-79
2022/04/29 03:32:37;;;;;;;3.97;2.53;;;13.20;78.40;;;;;;4914182;29;20499;-79
2022/04/29 03:35:02;;;;;;;5.55;3.00;;;13.10;78.00;;;;;;4922395;29;20031;-81
2022/04/29 03:37:28;;;;;;;5.88;2.88;;;13.20;78.20;;;;;;4907094;29;20488;-81
2022/04/29 03:39:54;;;;;;;5.13;3.17;;;13.20;78.00;;;;;;4921009;29;20087;-81
2022/04/29 03:42:21;;;;;;;4.47;2.97;;;13.20;77.40;;;;;;4908626;29;20040;-82
2022/04/29 03:44:47;;;;;;;3.30;2.72;;;13.30;77.30;;;;;;4920482;29;20094;-81
2022/04/29 03:47:13;;;;;;;7.40;2.88;;;13.40;77.40;;;;;;4922770;29;20574;-82
2022/04/29 03:49:39;;;;;;;5.93;3.10;;;13.40;77.50;;;;;;4908009;29;20122;-81
2022/04/29 03:52:05;;;;;;;4.07;2.75;;;13.30;77.70;;;;;;4905774;29;20038;-81
2022/04/29 03:54:32;;;;;;;3.30;3.00;;;13.30;77.80;;;;;;4922600;29;20540;-81
2022/04/29 03:56:58;;;;;;;3.60;2.92;;;13.20;78.80;;;;;;4907759;29;20032;-81
2022/04/29 03:59:24;;;;;;;3.67;2.90;;;13.10;78.60;;;;;;4907953;29;20030;-81
2022/04/29 04:01:51;;;;;;;3.40;2.80;;;13.10;78.50;;;;;;4908267;29;20040;-81
2022/04/29 04:04:17;;;;;;;4.00;3.38;;;13.10;78.40;;;;;;4921740;29;20024;-81
2022/04/29 04:06:52;;;;;;;8.68;3.15;;;13.10;78.40;;;;;;4925147;29;20379;-82
2022/04/29 04:09:22;;;;;;;15.80;3.50;;;13.10;78.80;;;;;;4917299;29;20042;-81
2022/04/29 04:11:51;;;;;;;3.72;2.88;;;13.00;79.20;;;;;;4907505;29;20442;-82
2022/04/29 04:14:18;;;;;;;7.97;2.65;;;13.00;79.20;;;;;;4921488;29;20024;-83
2022/04/29 04:16:44;;;;;;;5.13;3.33;;;13.00;79.00;;;;;;4923166;29;20059;-82
2022/04/29 04:19:10;;;;;;;9.65;3.25;;;13.00;79.20;;;;;;4923649;29;20035;-82
2022/04/29 04:21:36;;;;;;;5.05;3.25;;;13.00;78.90;;;;;;4905729;29;20580;-82
2022/04/29 04:24:05;;;;;;;5.43;3.25;;;13.10;78.90;;;;;;4902690;29;20038;-82
2022/04/29 04:26:32;;;;;;;6.15;3.08;;;13.10;79.70;;;;;;4907545;29;20040;-82
2022/04/29 04:28:58;;;;;;;7.38;2.97;;;13.10;78.70;;;;;;4921525;29;20075;-80
2022/04/29 04:31:24;;;;;;;5.32;3.03;;;13.10;78.20;;;;;;4925842;29;20118;-81
2022/04/29 04:33:50;;;;;;;4.05;2.67;;;13.10;79.20;;;;;;4920559;29;20032;-81
2022/04/29 04:36:17;;;;;;;3.00;2.67;;;13.10;78.50;;;;;;4903690;29;20175;-81
2022/04/29 04:38:45;;;;;;;9.25;2.90;;;13.10;78.70;;;;;;4924890;29;20036;-82
2022/04/29 04:41:13;;;;;;;5.45;2.70;;;13.10;79.40;;;;;;4908949;29;20035;-81
2022/04/29 04:43:38;;;;;;;4.35;2.88;;;13.20;79.10;;;;;;4924164;29;20508;-81
2022/04/29 04:46:06;;;;;;;3.05;2.75;;;13.20;79.70;;;;;;4926275;29;20063;-81
2022/04/29 04:48:32;;;;;;;12.90;4.40;;;13.10;79.70;;;;;;4924291;29;20028;-81
2022/04/29 04:51:01;;;;;;;4.20;3.20;;;13.10;80.30;;;;;;4910837;29;20511;-81
2022/04/29 04:53:27;;;;;;;5.57;3.30;;;13.10;80.10;;;;;;4923294;29;20038;-81
2022/04/29 04:56:10;;;;;;;4.47;2.60;;;13.20;80.70;;;;;;4925741;29;20032;-79
2022/04/29 04:58:36;;;;;;;2.72;2.53;;;13.20;79.80;;;;;;4930736;29;20031;-81
2022/04/29 05:01:02;;;;;;;11.23;3.22;;;13.30;79.60;;;;;;4928913;29;20518;-79
2022/04/29 05:03:29;;;;;;;8.25;2.90;;;13.40;79.30;;;;;;4910593;29;20035;-81
2022/04/29 05:05:55;;;;;;;6.07;3.28;;;13.40;78.80;;;;;;4926502;29;20035;-79
2022/04/29 05:08:20;;;;;;;3.85;2.70;;;13.40;79.80;;;;;;4925037;29;20036;-79
2022/04/29 05:10:48;;;;;;;7.85;3.25;;;13.40;80.20;;;;;;4925173;29;20046;-80
2022/04/29 05:13:14;;;;;;;5.45;2.50;;;13.40;79.70;;;;;;4905490;29;20049;-79
2022/04/29 05:15:42;;;;;;;3.65;2.70;;;13.40;80.60;;;;;;4902697;29;20028;-79
2022/04/29 05:18:09;;;;;;;3.38;2.58;;;13.50;78.60;;;;;;4921947;29;20036;-79
2022/04/29 05:20:42;;;;;;;3.08;2.65;;;13.60;80.60;;;;;;4907004;29;20028;-79
2022/04/29 05:23:08;;;;;;;4.95;2.92;;;13.60;81.70;;;;;;4905787;29;20032;-80
2022/04/29 05:25:35;;;;;;;4.97;2.88;;;13.60;80.30;;;;;;4909150;29;20024;-79
2022/04/29 05:28:05;;;;;;;6.47;2.97;;;13.70;79.40;;;;;;4914660;29;20112;-79
2022/04/29 05:30:31;;;;;;;3.33;2.63;;;13.90;78.40;;;;;;4904778;29;20039;-79
2022/04/29 05:32:58;;;;;;;3.75;2.47;;;14.00;77.00;;;;;;4909275;29;20096;-79
2022/04/29 05:35:24;;;;;;;5.25;2.85;;;14.20;77.70;;;;;;4903819;29;20028;-80
2022/04/29 05:37:51;;;;;;;5.25;2.80;;;14.30;76.40;;;;;;4907601;29;20100;-81
2022/04/29 05:43:02;;;;;;;5.82;2.95;;;14.40;77.00;;;;;;4907948;29;20039;-80
2022/04/29 05:45:28;;;;;;;3.55;2.70;;;14.40;76.70;;;;;;4902286;29;20551;-81
2022/04/29 05:47:54;;;;;;;3.60;2.70;;;14.50;75.80;;;;;;4909450;29;20103;-81
2022/04/29 05:50:20;;;;;;;5.53;2.50;;;14.60;75.40;;;;;;4903824;29;20120;-81
2022/04/29 05:52:48;;;;;;;3.60;2.38;;;14.70;75.80;;;;;;4907199;29;20063;-81
2022/04/29 05:55:14;;;;;;;3.63;2.70;;;14.80;74.70;;;;;;4909274;29;20200;-80
2022/04/29 05:57:40;;;;;;;3.45;2.65;;;14.80;74.00;;;;;;4906891;29;20028;-80
2022/04/29 06:00:07;;;;;;;4.05;2.83;;;14.90;74.00;;;;;;4904284;29;20487;-80
2022/04/29 06:02:33;;;;;;;4.70;2.67;;;15.00;73.00;;;;;;4905351;29;20038;-81
2022/04/29 06:05:02;;;;;;;5.72;2.83;;;15.20;73.50;;;;;;4904211;29;20032;-81
2022/04/29 06:07:31;;;;;;;6.05;3.00;;;15.20;73.00;;;;;;4908248;29;20025;-81
2022/04/29 06:09:56;;;;;;;3.03;2.78;;;15.30;73.80;;;;;;4910106;29;20261;-81
2022/04/29 06:12:22;;;;;;;4.88;2.47;;;15.40;74.10;;;;;;4917152;29;20525;-80
2022/04/29 06:14:48;;;;;;;3.45;2.67;;;15.40;73.10;;;;;;4928608;29;20450;-80
2022/04/29 06:17:14;;;;;;;5.05;2.85;;;15.60;72.40;;;;;;4925034;29;20066;-81
2022/04/29 06:19:40;;;;;;;4.18;2.90;;;15.80;72.30;;;;;;4923201;29;20032;-81
2022/04/29 06:22:08;;;;;;;4.05;2.72;;;15.80;71.80;;;;;;4924317;29;20099;-81
2022/04/29 06:24:34;;;;;;;4.38;3.05;;;15.80;71.50;;;;;;4928634;29;20035;-80
2022/04/29 06:27:01;;;;;;;4.18;2.75;;;15.90;71.50;;;;;;4924719;29;20416;-80
2022/04/29 06:29:27;;;;;;;6.65;2.90;;;16.00;70.70;;;;;;4923073;29;20031;-81
2022/04/29 06:31:53;;;;;;;2.90;2.58;;;16.10;69.50;;;;;;4926641;29;20032;-80
2022/04/29 06:34:18;;;;;;;8.82;2.78;;;16.10;70.20;;;;;;4929345;29;20024;-81
2022/04/29 06:36:44;;;;;;;4.20;2.50;;;16.20;70.70;;;;;;4921749;29;20032;-81
2022/04/29 06:39:10;;;;;;;5.22;2.47;;;16.20;71.00;;;;;;4922548;29;20036;-81
2022/04/29 06:41:36;;;;;;;4.13;2.53;;;16.30;69.90;;;;;;4928011;29;20048;-81
2022/04/29 06:44:02;;;;;;;7.43;2.90;;;16.40;68.90;;;;;;4928130;29;20368;-80
2022/04/29 06:46:31;;;;;;;5.32;2.47;;;16.50;68.30;;;;;;4924345;29;20526;-81
2022/04/29 06:48:58;;;;;;;6.57;2.83;;;16.50;67.90;;;;;;4929524;29;20032;-81
2022/04/29 06:51:24;;;;;;;5.05;2.92;;;16.50;68.40;;;;;;4922094;29;20467;-81
2022/04/29 06:53:50;;;;;;;3.67;2.40;;;16.50;70.40;;;;;;4926576;29;20123;-80
2022/04/29 06:56:16;;;;;;;5.38;3.05;;;16.60;70.60;;;;;;4922760;29;20476;-81
2022/04/29 06:58:41;;;;;;;7.90;2.72;;;16.70;68.40;;;;;;4929083;29;20098;-81
2022/04/29 07:01:07;;;;;;;12.40;2.70;;;16.80;68.90;;;;;;4924487;29;20040;-81
2022/04/29 07:03:36;;;;;;;5.55;2.50;;;16.80;70.70;;;;;;4922434;29;20032;-81
2022/04/29 07:06:04;;;;;;;5.68;3.00;;;16.80;69.20;;;;;;4924564;29;20088;-81
2022/04/29 07:08:30;;;;;;;7.68;2.75;;;16.90;69.00;;;;;;4908882;29;20442;-81
2022/04/29 07:10:56;;;;;;;3.70;2.60;;;17.00;67.30;;;;;;4909231;29;20032;-81
2022/04/29 07:13:22;;;;;;;2.95;2.33;;;17.00;68.60;;;;;;4925642;29;20052;-81
2022/04/29 07:15:48;;;;;;;3.42;2.45;;;17.10;69.30;;;;;;4924103;29;20398;-82
2022/04/29 07:18:17;;;;;;;3.40;2.90;;;17.10;69.90;;;;;;4925271;29;20039;-82
2022/04/29 07:20:44;;;;;;;4.22;2.67;;;17.30;67.60;;;;;;4921168;29;20040;-81
2022/04/29 07:23:10;;;;;;;3.65;2.55;;;17.30;69.60;;;;;;4924047;29;20582;-82
2022/04/29 07:25:38;;;;;;;8.23;2.63;;;17.30;68.80;;;;;;4923203;29;20065;-81
2022/04/29 07:28:04;;;;;;;9.05;2.80;;;17.40;67.50;;;;;;4925026;29;20024;-81
2022/04/29 07:30:30;;;;;;;8.73;2.72;;;17.60;67.60;;;;;;4927757;29;20031;-81
2022/04/29 07:32:56;;;;;;;6.10;2.88;;;17.60;66.50;;;;;;4925040;29;20035;-82
2022/04/29 07:43:36;;;;;;;4.72;2.95;;;17.60;66.50;;;;;;4929041;28;20117;-81
2022/04/29 07:46:03;;;;;;;3.33;2.50;;;17.60;66.70;;;;;;4927805;29;20032;-81
2022/04/29 07:48:29;;;;;;;6.45;3.00;;;17.60;70.30;;;;;;4922655;29;20501;-81
2022/04/29 07:50:55;;;;;;;7.82;2.70;;;17.80;66.70;;;;;;4922875;29;20095;-81
2022/04/29 07:53:21;;;;;;;7.32;3.05;;;17.90;66.80;;;;;;4908968;29;20032;-83
2022/04/29 07:55:47;;;;;;;5.40;2.88;;;18.00;64.90;;;;;;4907517;29;20035;-80
2022/04/29 07:58:14;;;;;;;4.03;2.70;;;18.00;67.90;;;;;;4922752;29;20023;-80
2022/04/29 08:00:40;;;;;;;4.65;2.67;;;18.10;68.00;;;;;;4922938;29;20398;-80
2022/04/29 08:03:07;;;;;;;4.43;2.72;;;18.20;66.50;;;;;;4923169;29;20048;-81
2022/04/29 08:05:36;;;;;;;5.90;2.65;;;18.30;65.60;;;;;;4921174;29;20047;-81
2022/04/29 08:08:02;;;;;;;3.35;2.50;;;18.20;64.50;;;;;;4908232;29;21164;-81
2022/04/29 08:10:32;;;;;;;5.65;2.50;;;18.20;65.80;;;;;;4928212;29;20043;-81
2022/04/29 08:12:59;;;;;;;6.10;2.38;;;18.30;64.50;;;;;;4905465;29;20107;-81
2022/04/29 08:15:28;;;;;;;3.70;2.70;;;18.30;66.80;;;;;;4917188;29;20221;-81
2022/04/29 08:17:54;;;;;;;8.95;3.38;;;18.40;64.60;;;;;;4923074;29;20028;-81
2022/04/29 08:20:20;;;;;;;11.95;2.83;;;18.40;62.70;;;;;;4927976;29;20083;-81
2022/04/29 08:22:47;;;;;;;6.57;2.45;;;18.40;65.20;;;;;;4906893;29;20080;-81
2022/04/29 08:25:13;;;;;;;5.03;2.88;;;18.50;66.50;;;;;;4904775;29;20036;-82
2022/04/29 08:27:38;;;;;;;7.25;2.60;;;18.50;64.60;;;;;;4924018;29;20083;-81
2022/04/29 08:30:08;;;;;;;7.88;2.83;;;18.70;64.30;;;;;;4919699;29;20027;-81
2022/04/29 08:32:50;;;;;;;3.00;2.65;;;18.80;65.80;;;;;;4922970;29;20131;-83
2022/04/29 08:35:16;;;;;;;8.23;2.83;;;18.80;62.30;;;;;;4928399;29;20028;-81
2022/04/29 08:37:43;;;;;;;7.72;2.40;;;18.80;63.30;;;;;;4923954;29;20032;-80
2022/04/29 08:40:11;;;;;;;13.77;2.60;;;18.90;64.20;;;;;;4920045;29;20091;-81
2022/04/29 08:42:38;;;;;;;4.13;2.20;;;18.90;66.50;;;;;;4925761;29;20368;-83
2022/04/29 08:45:12;;;;;;;8.02;2.70;;;19.00;63.20;;;;;;4928295;28;20020;-84
2022/04/29 08:47:41;;;;;;;3.45;2.63;;;19.00;64.60;;;;;;4909051;29;20054;-85
2022/04/29 08:50:10;;;;;;;9.35;2.55;;;19.10;64.00;;;;;;4921074;29;20055;-84
2022/04/29 08:52:39;;;;;;;5.22;2.45;;;19.10;64.10;;;;;;4923128;29;20029;-83
2022/04/29 09:00:41;;;;;;;3.65;2.40;;;19.20;62.90;;;;;;4928252;29;20073;-83
2022/04/29 09:03:22;;;;;;;10.20;3.33;;;19.30;65.00;;;;;;4916501;29;20033;-88
2022/04/29 09:05:48;;;;;;;4.05;2.55;;;19.40;64.90;;;;;;4904770;29;20563;-84
2022/04/29 09:08:16;;;;;;;3.50;2.35;;;19.50;63.40;;;;;;4905362;29;20036;-85
2022/04/29 09:10:56;;;;;;;5.88;3.05;;;19.50;63.00;;;;;;4922454;29;20040;-85
2022/04/29 09:13:25;;;;;;;6.97;2.55;;;19.50;63.00;;;;;;4921268;29;20052;-83
2022/04/29 09:15:50;;;;;;;3.75;2.65;;;19.50;63.50;;;;;;4918970;29;20032;-93
2022/04/29 09:18:49;;;;;;;3.67;2.60;;;19.50;63.30;;;;;;4906839;29;20025;-81
2022/04/29 09:21:20;;;;;;;5.68;2.72;;;19.60;65.10;;;;;;4919343;29;20139;-83
2022/04/29 09:23:55;;;;;;;5.95;2.63;;;19.60;65.20;;;;;;4924067;29;20039;-84
2022/04/29 09:26:28;;;;;;;5.25;2.60;;;19.70;63.90;;;;;;4906449;29;20047;-88
2022/04/29 09:29:08;;;;;;;3.35;3.00;;;19.80;63.20;;;;;;4923638;29;20025;-89
2022/04/29 09:31:53;;;;;;;6.15;2.65;;;19.80;64.50;;;;;;4925271;29;20114;-86
2022/04/29 09:34:18;;;;;;;4.60;3.13;;;19.80;63.10;;;;;;4927387;29;20032;-89
2022/04/29 09:36:44;;;;;;;11.13;3.00;;;19.90;65.50;;;;;;4925481;29;20099;-86
2022/04/29 09:39:30;;;;;;;4.32;2.60;;;20.00;63.00;;;;;;4927130;29;20066;-83
2022/04/29 09:42:05;;;;;;;5.60;2.75;;;20.10;63.80;;;;;;4927159;29;20036;-86
2022/04/29 09:44:36;;;;;;;9.15;3.10;;;20.10;62.50;;;;;;4922030;29;20044;-85
2022/04/29 09:47:16;;;;;;;6.90;3.00;;;20.10;65.20;;;;;;4912165;29;20036;-86
2022/04/29 09:50:04;;;;;;;4.88;2.42;;;20.30;65.10;;;;;;4925179;29;20265;-84
2022/04/29 09:52:30;;;;;;;8.30;2.72;;;20.40;61.60;;;;;;4926109;29;20498;-85
2022/04/29 09:55:09;;;;;;;5.10;2.83;;;20.40;63.40;;;;;;4922862;29;20032;-82
2022/04/29 09:57:48;;;;;;;5.10;2.42;;;20.40;62.30;;;;;;4926753;29;20034;-87
2022/04/29 10:00:15;;;;;;;5.45;2.88;;;20.40;62.30;;;;;;4928040;29;20086;-82
2022/04/29 10:02:41;;;;;;;7.63;2.70;;;20.40;61.90;;;;;;4928070;29;20030;-82
2022/04/29 10:05:08;;;;;;;15.13;3.03;;;20.40;62.40;;;;;;4924161;29;20034;-81
2022/04/29 10:07:34;;;;;;;4.72;2.40;;;20.40;61.80;;;;;;4925428;29;20032;-83
2022/04/29 10:10:04;;;;;;;6.07;2.53;;;20.40;61.00;;;;;;4931496;29;20024;-84
2022/04/29 10:12:31;;;;;;;5.20;2.65;;;20.40;65.90;;;;;;4927504;29;20040;-85
2022/04/29 10:15:04;;;;;;;5.07;2.55;;;20.50;63.10;;;;;;4909309;29;20036;-84
2022/04/29 10:23:08;;;;;;;6.55;2.92;;;20.90;61.00;;;;;;4927877;29;20055;-83
2022/04/29 10:25:36;;;;;;;4.03;2.40;;;20.80;59.20;;;;;;4903277;29;20032;-83
2022/04/29 10:28:03;;;;;;;3.63;2.67;;;20.80;61.60;;;;;;4926486;29;20028;-84
2022/04/29 10:30:32;;;;;;;3.05;2.22;;;20.80;64.80;;;;;;4909876;29;20019;-86
2022/04/29 10:33:08;;;;;;;4.32;2.30;;;20.80;63.50;;;;;;4930646;29;20032;-83
2022/04/29 10:35:43;;;;;;;4.03;2.45;;;21.10;60.40;;;;;;4930663;29;20106;-83
2022/04/29 10:38:17;;;;;;;3.00;2.35;;;21.20;60.40;;;;;;4926562;29;20495;-83
2022/04/29 10:40:50;;;;;;;3.28;2.53;;;21.30;62.90;;;;;;4923786;29;20035;-84
2022/04/29 10:43:18;;;;;;;6.18;2.60;;;21.50;60.70;;;;;;4910132;29;20062;-83
2022/04/29 10:46:15;;;;;;;8.20;2.40;;;21.50;64.20;;;;;;4924845;29;20023;-83
2022/04/29 10:48:42;;;;;;;5.38;2.83;;;21.70;62.20;;;;;;4931455;29;20082;-82
2022/04/29 10:51:15;;;;;;;3.10;2.60;;;21.80;59.60;;;;;;4907093;29;20171;-84
2022/04/29 10:53:42;;;;;;;3.78;2.63;;;21.80;59.70;;;;;;4934249;29;20062;-83
2022/04/29 10:56:26;;;;;;;7.78;2.63;;;21.80;60.40;;;;;;4930134;29;20061;-83
2022/04/29 10:58:56;;;;;;;5.00;2.53;;;21.70;60.10;;;;;;4910809;29;20280;-83
2022/04/29 11:01:25;;;;;;;9.00;2.92;;;21.80;62.00;;;;;;4924928;29;20043;-84
2022/04/29 11:03:51;;;;;;;4.53;2.60;;;21.80;60.10;;;;;;4928991;29;20113;-83
2022/04/29 11:06:17;;;;;;;3.80;2.53;;;21.90;60.00;;;;;;4925138;29;20112;-83
2022/04/29 11:08:46;;;;;;;4.60;2.53;;;22.00;60.50;;;;;;4928868;29;20372;-84
2022/04/29 11:11:12;;;;;;;4.63;2.38;;;22.10;59.00;;;;;;4916617;29;20527;-86
2022/04/29 11:13:48;;;;;;;6.28;2.75;;;22.20;60.90;;;;;;4924753;29;20044;-83
2022/04/29 11:16:16;;;;;;;3.00;2.70;;;22.30;59.00;;;;;;4924590;28;20059;-83
2022/04/29 11:18:44;;;;;;;8.15;2.47;;;22.30;59.20;;;;;;4927362;29;20024;-84
2022/04/29 11:26:49;;;;;;;11.20;2.80;;;22.50;58.70;;;;;;4924273;29;20043;-83
2022/04/29 11:29:17;;;;;;;7.05;2.63;;;22.50;57.40;;;;;;4922173;29;20036;-84
2022/04/29 11:31:43;;;;;;;3.78;2.42;;;22.50;58.40;;;;;;4925943;29;20059;-84
2022/04/29 11:34:15;;;;;;;3.63;2.80;;;22.60;57.60;;;;;;4919603;29;20409;-82
2022/04/29 11:36:43;;;;;;;3.53;2.50;;;22.60;58.40;;;;;;4907221;29;20518;-83
2022/04/29 11:39:17;;;;;;;4.85;2.50;;;22.50;59.40;;;;;;4920278;29;20032;-83
2022/04/29 11:42:03;;;;;;;3.50;2.33;;;22.70;57.40;;;;;;4906055;29;20377;-83
2022/04/29 11:44:40;;;;;;;3.78;2.50;;;22.80;60.60;;;;;;4922152;29;20107;-83
2022/04/29 11:47:06;;;;;;;2.78;2.10;;;23.10;58.80;;;;;;4924309;29;20039;-82
2022/04/29 11:49:33;;;;;;;3.47;2.40;;;23.20;60.00;;;;;;4925526;29;20107;-83
2022/04/29 11:52:26;;;;;;;10.35;2.60;;;23.20;57.70;;;;;;4923232;29;20482;-83
2022/04/29 11:54:57;;;;;;;3.55;2.30;;;23.20;55.30;;;;;;4920613;29;20032;-83
2022/04/29 11:57:24;;;;;;;2.85;2.28;;;23.30;56.00;;;;;;4926652;29;20024;-83
2022/04/29 11:59:50;;;;;;;10.05;2.55;;;23.40;54.90;;;;;;4903257;29;20118;-82
2022/04/29 12:02:21;;;;;;;2.85;2.33;;;23.80;56.00;;;;;;4924840;29;20043;-83
2022/04/29 12:04:57;;;;;;;5.20;2.55;;;25.80;53.60;;;;;;4903118;29;20502;-83
2022/04/29 12:07:25;;;;;;;4.53;2.40;;;30.10;52.10;;;;;;4921448;29;20036;-83
2022/04/29 12:09:54;;;;;;;5.15;2.10;;;33.30;48.60;;;;;;4909865;29;20094;-85
2022/04/29 12:12:26;;;;;;;3.67;2.53;;;35.60;45.00;;;;;;4926352;29;20039;-84
2022/04/29 12:14:54;;;;;;;7.55;2.55;;;37.20;44.50;;;;;;4910259;29;20115;-84
2022/04/29 12:17:30;;;;;;;2.78;1.95;;;38.10;43.90;;;;;;4915418;29;20039;-83
2022/04/29 12:19:56;;;;;;;4.72;2.40;;;38.10;40.60;;;;;;4928869;29;20087;-84
2022/04/29 12:22:30;;;;;;;2.42;1.73;;;37.90;42.70;;;;;;4927106;29;20040;-83
2022/04/29 12:24:57;;;;;;;3.25;1.90;;;37.70;41.60;;;;;;4926914;29;20057;-84
2022/04/29 12:27:30;;;;;;;5.57;2.30;;;38.10;41.70;;;;;;4908107;29;20058;-84
2022/04/29 12:35:29;;;;;;;3.15;2.20;;;38.60;39.50;;;;;;4932923;28;20050;-83
2022/04/29 12:37:58;;;;;;;4.97;2.30;;;39.20;40.10;;;;;;4923237;29;20474;-83
2022/04/29 12:40:29;;;;;;;7.22;2.40;;;40.60;39.80;;;;;;4929008;29;20063;-84
2022/04/29 12:43:11;;;;;;;5.30;2.00;;;42.40;40.20;;;;;;4923381;29;20032;-84
2022/04/29 12:45:37;;;;;;;5.55;2.00;;;42.90;39.20;;;;;;4920564;29;20031;-84
2022/04/29 12:48:05;;;;;;;2.40;1.90;;;43.70;38.80;;;;;;4923771;29;20028;-83
2022/04/29 12:50:43;;;;;;;2.65;2.20;;;44.40;37.40;;;;;;4922374;29;20268;-79
2022/04/29 12:53:10;;;;;;;2.95;1.92;;;45.10;36.00;;;;;;4912756;29;20466;-83
2022/04/29 12:55:44;;;;;;;3.78;2.20;;;45.20;37.60;;;;;;4920463;29;20118;-82
2022/04/29 12:58:21;;;;;;;2.58;2.15;;;45.70;36.60;;;;;;4925855;29;20432;-83
2022/04/29 13:01:02;;;;;;;3.38;2.17;;;46.80;35.60;;;;;;4928526;29;20032;-82
2022/04/29 13:03:30;;;;;;;6.35;2.28;;;46.80;33.80;;;;;;4916207;29;20487;-83
2022/04/29 13:05:58;;;;;;;2.47;2.10;;;45.50;34.80;;;;;;4931348;29;20474;-84
2022/04/29 13:08:24;;;;;;;2.60;2.10;;;45.80;33.90;;;;;;4911575;29;20112;-85
2022/04/29 13:10:57;;;;;;;6.15;2.20;;;46.10;32.90;;;;;;4912824;29;20120;-83
2022/04/29 13:13:28;;;;;;;4.93;2.50;;;45.20;33.50;;;;;;4928728;29;20388;-83
2022/04/29 13:15:54;;;;;;;;;;;44.40;34.30;;;;;;4912597;29;20036;-81
2022/04/29 13:18:23;;;;;;;2.92;2.10;;;44.20;35.50;;;;;;4927960;29;19921;-82
2022/04/29 13:20:49;;;;;;;4.05;2.20;;;44.30;35.20;;;;;;4910390;29;20099;-82
2022/04/29 13:23:16;;;;;;;5.00;2.20;;;44.20;33.90;;;;;;4924898;29;20225;-80
2022/04/29 13:25:43;;;;;;;4.35;2.15;;;44.60;34.20;;;;;;4926081;29;20039;-81
2022/04/29 13:28:10;;;;;;;4.05;2.50;;;44.70;34.70;;;;;;4924044;29;20031;-81
2022/04/29 13:30:37;;;;;;;5.13;2.47;;;44.00;33.80;;;;;;4908362;29;20074;-81
2022/04/29 13:33:03;;;;;;;4.43;2.92;;;43.70;34.40;;;;;;4927439;29;20538;-80